createdAt,value
2023-01-10T00:00:35.491Z,52.84
2023-01-10T00:03:03.284Z,52.60
2023-01-10T00:05:30.300Z,52.82
2023-01-10T00:07:59.391Z,53.00
2023-01-10T00:10:26.132Z,53.00
2023-01-10T00:13:11.678Z,52.90
2023-01-10T00:15:38.858Z,53.00
2023-01-10T00:18:05.732Z,53.20
2023-01-10T00:20:32.751Z,53.33
2023-01-10T00:22:59.549Z,53.67
2023-01-10T00:25:26.753Z,53.83
2023-01-10T00:28:10.890Z,53.89
2023-01-10T00:30:40.946Z,53.96
2023-01-10T00:33:08.743Z,54.06
2023-01-10T00:35:35.793Z,54.29
2023-01-10T00:38:05.915Z,54.71
2023-01-10T00:40:33.383Z,54.68
2023-01-10T00:43:18.993Z,54.85
2023-01-10T00:45:46.608Z,54.98
2023-01-10T00:48:16.786Z,55.22
2023-01-10T00:50:43.813Z,55.56
2023-01-10T00:53:10.775Z,55.58
2023-01-10T00:55:37.539Z,56.01
2023-01-10T00:58:04.457Z,56.18
2023-01-10T01:00:31.240Z,56.52
2023-01-10T01:02:58.162Z,56.83
2023-01-10T01:05:25.110Z,56.85
2023-01-10T01:07:52.303Z,56.70
2023-01-10T01:10:28.234Z,56.88
2023-01-10T01:13:00.422Z,56.93
2023-01-10T01:15:27.674Z,57.24
2023-01-10T01:17:54.980Z,57.42
2023-01-10T01:20:22.116Z,57.19
2023-01-10T01:22:48.941Z,57.61
2023-01-10T01:25:17.935Z,57.79
2023-01-10T01:27:44.786Z,57.80
2023-01-10T01:30:12.315Z,57.64
2023-01-10T01:32:39.221Z,57.57
2023-01-10T01:35:07.805Z,57.69
2023-01-10T01:37:34.913Z,57.89
2023-01-10T01:40:01.785Z,57.79
2023-01-10T01:42:32.164Z,57.97
2023-01-10T01:45:14.191Z,57.70
2023-01-10T01:47:45.427Z,57.65
2023-01-10T01:50:17.868Z,57.76
2023-01-10T01:52:44.664Z,57.60
2023-01-10T01:55:11.439Z,57.80
2023-01-10T01:57:38.283Z,57.53
2023-01-10T02:00:05.681Z,57.73
2023-01-10T02:02:51.013Z,57.80
2023-01-10T02:05:24.817Z,57.95
2023-01-10T02:07:54.476Z,58.63
2023-01-10T02:10:58.489Z,58.65
2023-01-10T02:13:25.800Z,58.43
2023-01-10T02:15:52.627Z,58.49
2023-01-10T02:18:20.954Z,58.23
2023-01-10T02:21:06.382Z,58.07
2023-01-10T02:23:33.300Z,58.19
2023-01-10T02:26:25.019Z,58.13
2023-01-10T02:29:22.770Z,58.26
2023-01-10T02:32:18.775Z,58.36
2023-01-10T02:34:53.352Z,58.53
2023-01-10T02:37:23.819Z,58.53
2023-01-10T02:40:03.737Z,58.66
2023-01-10T02:42:34.859Z,58.49
2023-01-10T02:45:07.932Z,58.53
2023-01-10T02:47:38.791Z,58.34
2023-01-10T02:50:34.877Z,58.46
2023-01-10T02:53:04.899Z,58.44
2023-01-10T02:55:39.836Z,58.31
2023-01-10T02:58:15.086Z,58.63
2023-01-10T03:01:04.793Z,58.40
2023-01-10T03:03:35.094Z,58.29
2023-01-10T03:06:24.904Z,58.07
2023-01-10T03:09:10.148Z,58.21
2023-01-10T03:11:40.490Z,58.21
2023-01-10T03:14:17.993Z,58.08
2023-01-10T03:16:48.379Z,58.14
2023-01-10T03:19:17.999Z,58.33
2023-01-10T03:21:44.832Z,58.30
2023-01-10T03:24:19.445Z,58.08
2023-01-10T03:26:58.341Z,58.03
2023-01-10T03:29:40.700Z,57.82
2023-01-10T03:32:08.043Z,57.96
2023-01-10T03:34:34.944Z,57.58
2023-01-10T03:37:07.920Z,57.51
2023-01-10T03:39:41.777Z,57.60
2023-01-10T03:42:13.187Z,57.61
2023-01-10T03:44:58.637Z,57.28
2023-01-10T03:47:31.121Z,56.91
2023-01-10T03:50:19.540Z,57.01
2023-01-10T03:52:46.391Z,57.13
2023-01-10T03:55:15.132Z,57.28
2023-01-10T03:57:45.785Z,57.26
2023-01-10T04:00:13.567Z,57.26
2023-01-10T04:02:40.395Z,57.34
2023-01-10T04:05:08.061Z,57.28
2023-01-10T04:07:34.942Z,56.92
2023-01-10T04:10:01.787Z,57.17
2023-01-10T04:12:28.654Z,57.24
2023-01-10T04:14:55.441Z,57.13
2023-01-10T04:17:22.220Z,57.05
2023-01-10T04:19:49.103Z,56.86
2023-01-10T04:22:15.833Z,56.80
2023-01-10T04:24:44.379Z,56.79
2023-01-10T04:27:11.344Z,56.80
2023-01-10T04:29:38.238Z,56.48
2023-01-10T04:32:05.501Z,56.18
2023-01-10T04:34:32.253Z,56.25
2023-01-10T04:36:59.000Z,55.88
2023-01-10T04:39:25.871Z,55.97
2023-01-10T04:41:52.652Z,55.68
2023-01-10T04:44:19.436Z,55.44
2023-01-10T04:46:46.285Z,55.53
2023-01-10T04:49:13.275Z,55.40
2023-01-10T04:51:40.833Z,55.14
2023-01-10T04:54:07.627Z,54.68
2023-01-10T04:56:34.435Z,54.93
2023-01-10T04:59:01.255Z,54.90
2023-01-10T05:01:28.090Z,54.58
2023-01-10T05:03:55.618Z,53.96
2023-01-10T05:06:23.086Z,53.91
2023-01-10T05:08:50.031Z,53.58
2023-01-10T05:11:16.901Z,53.26
2023-01-10T05:13:43.738Z,53.17
2023-01-10T05:16:10.646Z,52.87
2023-01-10T05:18:37.598Z,52.67
2023-01-10T05:21:09.702Z,52.27
2023-01-10T05:23:36.766Z,52.46
2023-01-10T05:26:10.779Z,52.53
2023-01-10T05:28:37.989Z,52.57
2023-01-10T05:31:08.960Z,52.42
2023-01-10T05:33:36.004Z,52.43
2023-01-10T05:36:03.727Z,52.33
2023-01-10T05:38:30.773Z,52.41
2023-01-10T05:40:59.136Z,52.41
2023-01-10T05:43:26.850Z,52.40
2023-01-10T05:45:53.827Z,52.36
2023-01-10T05:48:20.702Z,52.54
2023-01-10T05:50:49.634Z,52.82
2023-01-10T05:53:17.608Z,52.89
2023-01-10T05:55:44.436Z,52.81
2023-01-10T05:58:11.471Z,52.89
2023-01-10T06:00:39.976Z,53.04
2023-01-10T06:03:06.946Z,53.21
2023-01-10T06:05:33.840Z,53.18
2023-01-10T06:08:00.619Z,53.29
2023-01-10T06:10:27.465Z,53.13
2023-01-10T06:12:54.799Z,53.03
2023-01-10T06:15:21.632Z,53.13
2023-01-10T06:17:48.482Z,53.12
2023-01-10T06:20:15.425Z,53.02
2023-01-10T06:23:04.656Z,52.81
2023-01-10T06:25:32.763Z,52.73
2023-01-10T06:27:59.713Z,52.78
2023-01-10T06:30:26.637Z,53.13
2023-01-10T06:32:53.433Z,52.59
2023-01-10T06:35:20.288Z,52.63
2023-01-10T06:37:47.111Z,52.55
2023-01-10T06:40:14.124Z,52.76
2023-01-10T06:42:41.364Z,52.68
2023-01-10T06:45:09.194Z,52.50
2023-01-10T06:47:36.261Z,52.39
2023-01-10T06:50:03.720Z,52.57
2023-01-10T06:52:30.649Z,52.40
2023-01-10T06:54:57.535Z,52.47
2023-01-10T06:57:24.586Z,52.35
2023-01-10T06:59:52.245Z,52.15
2023-01-10T07:02:19.182Z,52.12
2023-01-10T07:04:47.949Z,52.32
2023-01-10T07:07:14.781Z,52.38
2023-01-10T07:09:41.616Z,52.46
2023-01-10T07:12:08.507Z,52.31
2023-01-10T07:14:35.401Z,52.23
2023-01-10T07:17:02.249Z,52.21
2023-01-10T10:06:03.623Z,47.33
2023-01-10T10:08:34.560Z,47.32
2023-01-10T10:11:04.553Z,47.43
2023-01-10T10:13:49.286Z,47.40
2023-01-10T10:16:55.284Z,47.04
2023-01-10T10:19:56.412Z,47.20
2023-01-10T10:22:38.647Z,47.08
2023-01-10T10:25:42.990Z,47.28
2023-01-10T10:28:31.774Z,47.01
2023-01-10T10:31:10.754Z,47.16
2023-01-10T10:33:54.047Z,47.35
2023-01-10T10:36:37.518Z,47.72
2023-01-10T10:39:04.622Z,47.32
2023-01-10T10:41:35.165Z,47.19
2023-01-10T10:44:04.693Z,47.21
2023-01-10T10:46:31.615Z,47.04
2023-01-10T10:49:05.828Z,46.58
2023-01-10T11:03:33.660Z,45.94
2023-01-10T11:06:01.215Z,45.75
2023-01-10T11:08:29.350Z,45.65
2023-01-10T11:10:57.973Z,45.61
2023-01-10T11:13:30.843Z,45.67
2023-01-10T11:15:57.905Z,46.37
2023-01-10T11:18:28.515Z,46.37
2023-01-10T11:21:14.625Z,46.20
2023-01-10T11:23:53.367Z,46.74
2023-01-10T11:26:40.609Z,46.22
2023-01-10T11:29:43.809Z,46.89
2023-01-10T11:32:15.297Z,45.96
2023-01-10T11:35:03.113Z,45.87
2023-01-10T11:37:32.751Z,45.89
2023-01-10T11:40:24.206Z,45.54
2023-01-10T11:42:57.618Z,44.72
2023-01-10T11:45:32.002Z,44.58
2023-01-10T11:48:19.368Z,44.82
2023-01-10T11:50:50.305Z,44.28
2023-01-10T11:53:44.080Z,44.46
2023-01-10T11:56:12.278Z,43.87
2023-01-10T11:58:40.151Z,44.25
2023-01-10T12:01:07.064Z,43.96
2023-01-10T12:03:37.509Z,44.05
2023-01-10T12:06:15.090Z,44.02
2023-01-10T12:08:49.870Z,43.88
2023-01-10T12:11:16.732Z,43.75
2023-01-10T12:13:45.070Z,43.96
2023-01-10T12:16:25.271Z,43.93
2023-01-10T12:18:53.811Z,43.79
2023-01-10T12:21:30.481Z,43.43
2023-01-10T12:23:59.459Z,43.13
2023-01-10T12:26:27.712Z,42.94
2023-01-10T12:28:58.743Z,43.35
2023-01-10T12:31:25.793Z,43.23
2023-01-10T12:33:57.297Z,43.18
2023-01-10T12:36:59.578Z,42.75
2023-01-10T12:39:34.949Z,43.18
2023-01-10T12:42:34.373Z,43.27
2023-01-10T12:45:24.083Z,42.77
2023-01-10T12:48:00.250Z,43.10
2023-01-10T12:50:33.821Z,42.90
2023-01-10T12:53:14.397Z,42.80
2023-01-10T12:55:43.031Z,42.46
2023-01-10T12:58:31.758Z,42.56
2023-01-10T13:00:59.963Z,42.23
2023-01-10T13:03:29.022Z,42.45
2023-01-10T13:05:56.897Z,44.34
2023-01-10T13:08:25.987Z,47.18
2023-01-10T13:10:53.257Z,49.38
2023-01-10T16:38:03.822Z,50.54
2023-01-10T16:40:38.365Z,50.89
2023-01-10T16:43:25.774Z,51.02
2023-01-10T16:46:00.655Z,51.06
2023-01-10T16:48:28.967Z,49.99
2023-01-10T16:50:56.019Z,49.93
2023-01-10T16:53:22.856Z,50.80
2023-01-10T16:55:51.621Z,51.56
2023-01-10T16:58:19.264Z,51.69
2023-01-10T17:00:48.158Z,51.29
2023-01-10T17:03:16.835Z,50.95
2023-01-10T17:05:43.932Z,50.92
2023-01-10T17:08:16.547Z,51.09
2023-01-10T17:10:43.757Z,51.12
2023-01-10T17:13:10.808Z,50.69
2023-01-10T17:15:37.859Z,50.76
2023-01-10T17:18:04.721Z,51.38
2023-01-10T17:20:31.637Z,51.49
2023-01-10T17:22:58.455Z,51.38
2023-01-10T17:25:25.333Z,51.02
2023-01-10T17:27:52.136Z,51.24
2023-01-10T17:30:18.987Z,51.42
2023-01-10T17:32:45.954Z,51.84
2023-01-10T17:35:12.746Z,51.22
2023-01-10T17:37:40.620Z,51.27
2023-01-10T17:40:08.139Z,50.52
2023-01-10T17:42:35.173Z,49.83
2023-01-10T17:45:01.906Z,50.00
2023-01-10T17:47:28.705Z,49.71
2023-01-10T17:49:55.591Z,49.53
2023-01-10T17:52:22.577Z,49.41
2023-01-10T17:54:49.581Z,48.95
2023-01-10T17:57:16.632Z,49.19
2023-01-10T17:59:43.581Z,49.27
2023-01-10T18:02:16.678Z,49.44
2023-01-10T18:04:44.338Z,49.66
2023-01-10T18:07:13.124Z,49.03
2023-01-10T18:09:40.058Z,48.51
2023-01-10T18:12:07.165Z,48.20
2023-01-10T18:14:36.969Z,47.96
2023-01-10T18:17:11.247Z,47.58
2023-01-10T18:19:38.390Z,47.10
2023-01-10T18:22:23.980Z,46.71
2023-01-10T18:24:54.962Z,46.08
2023-01-10T18:27:22.982Z,46.15
2023-01-10T18:29:50.699Z,45.78
2023-01-10T18:32:18.408Z,45.61
2023-01-10T18:34:47.406Z,45.31
2023-01-10T18:37:14.868Z,44.94
2023-01-10T18:39:43.617Z,44.77
2023-01-10T18:42:11.247Z,44.58
2023-01-10T18:44:38.460Z,44.59
2023-01-10T18:47:06.323Z,44.58
2023-01-10T18:49:33.381Z,44.05
2023-01-10T18:52:00.834Z,43.75
2023-01-10T18:54:28.197Z,43.84
2023-01-10T18:56:56.002Z,43.80
2023-01-10T18:59:23.151Z,43.66
2023-01-10T19:01:50.438Z,43.44
2023-01-10T19:04:18.648Z,43.69
2023-01-10T19:06:46.181Z,43.89
2023-01-10T19:09:13.225Z,43.67
2023-01-10T19:11:40.179Z,43.83
2023-01-10T19:14:07.117Z,43.75
2023-01-10T22:20:27.167Z,44.54
2023-01-10T22:22:53.826Z,44.42
2023-01-10T22:25:20.637Z,44.52
2023-01-10T22:52:39.396Z,44.53
2023-01-10T22:55:06.687Z,44.85
2023-01-10T22:57:33.386Z,44.70
2023-01-10T23:00:00.275Z,45.19
2023-01-10T23:02:29.058Z,45.30
2023-01-10T23:04:56.111Z,45.50
2023-01-10T23:07:23.102Z,45.67
2023-01-10T23:09:49.864Z,45.74
2023-01-10T23:12:16.639Z,45.85
2023-01-10T23:14:43.204Z,46.05
2023-01-10T23:17:10.083Z,46.21
2023-01-10T23:19:36.793Z,46.30
2023-01-10T23:22:03.286Z,46.27
2023-01-10T23:24:30.270Z,46.37
2023-01-10T23:26:57.150Z,46.40
2023-01-10T23:29:24.040Z,46.32
2023-01-10T23:31:52.369Z,46.35
2023-01-10T23:34:19.153Z,46.19
2023-01-10T23:36:45.745Z,46.53
2023-01-10T23:39:12.405Z,46.67
2023-01-10T23:41:39.262Z,47.06
2023-01-10T23:44:05.992Z,47.02
2023-01-10T23:46:32.742Z,46.96
2023-01-10T23:48:59.430Z,46.93
2023-01-10T23:51:26.869Z,46.89
2023-01-10T23:53:53.778Z,47.00
2023-01-10T23:56:20.430Z,46.84
2023-01-10T23:58:50.918Z,47.23
